Time;durP1;ratioP1;P1;durP2;ratioP2;P2;SDS_P1;SDS_P2;PMS_P1;PMS_P2;Temp;Humidity;BMP_temperature;BMP_pressure;BME280_temperature;BME280_humidity;BME280_pressure;Samples;Min_cycle;Max_cycle;Signal;HPM_P1;HPM_P2
2021/11/29 00:01:46;;;;;;;22.00;8.95;;;;;;;11.13;91.58;97898.09;5097493;28;20028;-68
2021/11/29 00:04:12;;;;;;;23.55;11.77;;;;;;;10.70;93.40;97897.84;5092918;28;20353;-68
2021/11/29 00:06:37;;;;;;;101.90;34.58;;;;;;;10.64;94.07;97890.75;5091836;28;20043;-69
2021/11/29 00:09:03;;;;;;;57.65;22.23;;;;;;;10.78;94.03;97910.84;5096279;28;20119;-67
2021/11/29 00:11:29;;;;;;;51.45;17.35;;;;;;;10.92;93.88;97903.69;5094324;28;20099;-68
2021/11/29 00:13:54;;;;;;;18.50;7.30;;;;;;;11.07;93.60;97892.84;5100379;28;20040;-68
2021/11/29 00:16:20;;;;;;;22.63;10.93;;;;;;;11.07;94.44;97892.84;5104559;28;20032;-68
2021/11/29 00:18:45;;;;;;;22.55;9.20;;;;;;;10.82;95.87;97913.91;5098466;28;20028;-68
2021/11/29 00:21:13;;;;;;;27.42;10.63;;;;;;;11.02;94.90;97903.25;5103171;28;20034;-68
2021/11/29 00:23:39;;;;;;;13.63;5.85;;;;;;;11.27;92.75;97896.22;5086134;28;20036;-68
2021/11/29 00:26:04;;;;;;;15.60;5.55;;;;;;;10.90;95.40;97891.69;5097750;28;20058;-68
2021/11/29 00:28:30;;;;;;;13.27;5.97;;;;;;;10.58;98.07;97893.41;5096475;28;20234;-68
2021/11/29 00:30:55;;;;;;;17.27;6.93;;;;;;;10.32;99.97;97887.09;5097950;28;20091;-67
2021/11/29 00:33:21;;;;;;;16.77;7.18;;;;;;;10.15;100.00;97885.88;5077528;28;20265;-68
2021/11/29 00:35:47;;;;;;;25.08;8.98;;;;;;;10.38;99.26;97890.75;5102013;28;20345;-68
2021/11/29 00:38:12;;;;;;;26.60;10.10;;;;;;;10.40;98.33;97884.28;5097885;28;20332;-68
2021/11/29 00:40:39;;;;;;;21.08;10.40;;;;;;;10.63;97.70;97883.00;5095971;28;20039;-68
2021/11/29 00:43:04;;;;;;;19.85;9.45;;;;;;;10.38;96.87;97870.41;5096660;28;20059;-68
2021/11/29 00:45:30;;;;;;;24.30;10.55;;;;;;;10.31;98.61;97866.16;5095789;28;20280;-68
2021/11/29 00:47:56;;;;;;;23.33;8.75;;;;;;;10.65;95.04;97865.09;5097714;28;20043;-68
2021/11/29 00:50:21;;;;;;;24.23;9.95;;;;;;;10.36;96.13;97856.56;5102099;28;20032;-68
2021/11/29 00:52:48;;;;;;;27.70;10.68;;;;;;;10.29;96.79;97844.38;5103691;28;20032;-68
2021/11/29 00:55:15;;;;;;;23.40;11.13;;;;;;;10.35;96.09;97833.78;5078742;28;20044;-68
2021/11/29 00:57:41;;;;;;;19.95;9.80;;;;;;;10.41;95.46;97837.47;5095760;28;20195;-68
2021/11/29 01:00:10;;;;;;;23.13;8.82;;;;;;;10.51;94.10;97819.31;5095329;28;20032;-68
2021/11/29 01:02:36;;;;;;;17.35;9.45;;;;;;;10.30;94.37;97812.44;5102520;28;20052;-68
2021/11/29 01:05:03;;;;;;;23.63;10.07;;;;;;;10.06;97.03;97836.84;5096250;28;20249;-68
2021/11/29 01:07:28;;;;;;;25.25;10.60;;;;;;;10.04;99.63;97823.84;5094024;28;20399;-68
2021/11/29 01:09:54;;;;;;;24.25;11.55;;;;;;;10.30;99.93;97822.19;5063316;28;20028;-68
2021/11/29 01:12:19;;;;;;;21.17;10.23;;;;;;;10.28;100.00;97824.22;5062979;28;20033;-68
2021/11/29 01:14:45;;;;;;;21.40;12.18;;;;;;;10.26;97.99;97810.41;5095303;28;20341;-69
2021/11/29 01:17:11;;;;;;;21.85;10.60;;;;;;;10.27;98.43;97817.31;5097703;28;20043;-68
2021/11/29 01:19:37;;;;;;;33.58;13.20;;;;;;;10.41;96.13;97821.59;5095763;28;20031;-68
2021/11/29 01:22:03;;;;;;;26.05;12.90;;;;;;;10.19;95.55;97805.91;5095147;28;20040;-68
2021/11/29 01:24:29;;;;;;;32.83;12.20;;;;;;;10.31;95.97;97771.72;5094786;28;20055;-68
2021/11/29 01:26:55;;;;;;;44.08;16.95;;;;;;;10.54;94.58;97755.38;5101419;28;20040;-68
2021/11/29 01:29:21;;;;;;;31.48;11.45;;;;;;;10.62;94.59;97757.81;5103424;28;20062;-68
2021/11/29 01:31:46;;;;;;;25.85;12.15;;;;;;;10.72;93.08;97755.50;5099371;28;20304;-68
2021/11/29 01:34:12;;;;;;;25.58;10.93;;;;;;;10.66;92.84;97766.94;5097056;28;20035;-68
2021/11/29 01:36:39;;;;;;;25.45;12.10;;;;;;;10.87;90.71;97771.13;5084637;28;20019;-69
2021/11/29 01:39:05;;;;;;;29.27;13.70;;;;;;;10.77;92.04;97770.75;5099935;28;20377;-68
2021/11/29 01:41:31;;;;;;;29.05;14.40;;;;;;;10.91;91.72;97768.84;5098561;28;20232;-68
2021/11/29 01:43:56;;;;;;;35.83;14.23;;;;;;;10.92;90.75;97763.34;5101386;28;20306;-68
2021/11/29 01:46:22;;;;;;;25.65;12.40;;;;;;;10.86;90.79;97758.91;5085397;28;20103;-68
2021/11/29 01:48:47;;;;;;;27.73;13.75;;;;;;;10.91;90.62;97742.38;5102443;28;20070;-68
2021/11/29 01:51:13;;;;;;;46.70;19.60;;;;;;;11.11;89.24;97746.53;5095620;28;20033;-69
2021/11/29 01:53:39;;;;;;;34.22;16.13;;;;;;;10.81;89.82;97733.06;5094333;28;20039;-68
2021/11/29 01:56:05;;;;;;;37.35;15.15;;;;;;;10.88;89.69;97735.66;5096545;28;20043;-68
2021/11/29 01:58:34;;;;;;;47.45;19.98;;;;;;;10.93;90.13;97730.56;5102602;28;20036;-68
2021/11/29 02:01:05;;;;;;;138.25;41.00;;;;;;;10.88;89.76;97739.13;5100701;28;20168;-69
2021/11/29 02:03:31;;;;;;;27.77;14.10;;;;;;;11.04;89.37;97737.81;5093462;28;20095;-69
2021/11/29 02:05:57;;;;;;;31.08;15.23;;;;;;;11.07;87.89;97734.75;5063197;28;20037;-68
2021/11/29 02:08:23;;;;;;;36.83;17.65;;;;;;;10.82;89.11;97731.22;5061826;28;20037;-68
2021/11/29 02:10:49;;;;;;;29.55;15.05;;;;;;;10.84;88.89;97732.63;5095854;28;20043;-68
2021/11/29 02:13:16;;;;;;;38.25;17.33;;;;;;;10.65;89.78;97715.03;5102905;28;20470;-68
2021/11/29 02:15:42;;;;;;;40.38;19.30;;;;;;;10.68;89.04;97709.31;5098870;28;20032;-68
2021/11/29 02:18:08;;;;;;;39.92;19.00;;;;;;;10.46;88.23;97708.00;5095063;28;20272;-68
2021/11/29 02:20:37;;;;;;;40.13;19.55;;;;;;;10.24;91.31;97694.22;5100801;28;20038;-68
2021/11/29 02:23:04;;;;;;;33.30;16.70;;;;;;;10.45;91.58;97696.59;5101918;28;20051;-68
2021/11/29 02:25:29;;;;;;;34.92;17.10;;;;;;;10.83;89.39;97680.72;5093866;28;20051;-68
2021/11/29 02:27:56;;;;;;;33.80;16.00;;;;;;;10.73;88.69;97679.56;5095769;28;20265;-68
2021/11/29 02:30:24;;;;;;;29.42;13.85;;;;;;;10.41;88.87;97674.25;5102037;28;20030;-68
2021/11/29 02:32:51;;;;;;;35.35;15.68;;;;;;;10.06;91.29;97688.78;5095535;28;20034;-68
2021/11/29 02:35:17;;;;;;;29.67;14.63;;;;;;;10.05;93.10;97697.72;5095182;28;20035;-68
2021/11/29 02:37:42;;;;;;;29.55;14.20;;;;;;;10.15;93.04;97676.94;5098248;28;20043;-69
2021/11/29 02:40:08;;;;;;;33.50;13.98;;;;;;;10.23;92.16;97669.63;5101692;28;20221;-68
2021/11/29 02:42:34;;;;;;;24.38;13.65;;;;;;;10.20;93.29;97659.47;5097728;28;20027;-68
2021/11/29 02:44:59;;;;;;;40.65;16.25;;;;;;;10.36;92.09;97641.47;5084584;28;20058;-69
2021/11/29 02:47:25;;;;;;;45.08;18.55;;;;;;;10.35;92.15;97635.38;5099351;28;20019;-69
2021/11/29 02:49:50;;;;;;;29.85;14.40;;;;;;;10.22;92.36;97632.78;5097672;28;20321;-68
2021/11/29 02:52:18;;;;;;;27.92;10.95;;;;;;;10.30;92.38;97637.84;5101875;28;20036;-68
2021/11/29 02:54:44;;;;;;;25.55;10.73;;;;;;;10.47;90.20;97630.25;5099403;28;20039;-68
2021/11/29 02:57:13;;;;;;;27.05;11.15;;;;;;;10.44;90.41;97620.91;5097126;28;20047;-68
2021/11/29 02:59:39;;;;;;;28.67;11.93;;;;;;;10.30;91.38;97623.81;5083098;28;20043;-68
2021/11/29 03:02:11;;;;;;;28.55;11.55;;;;;;;10.20;90.87;97618.97;5081285;28;20024;-68
2021/11/29 03:04:37;;;;;;;22.00;10.45;;;;;;;10.16;91.03;97623.84;5092377;28;20044;-68
2021/11/29 03:07:04;;;;;;;16.65;9.18;;;;;;;10.31;92.47;97598.97;5093848;28;20020;-68
2021/11/29 03:09:30;;;;;;;18.63;9.50;;;;;;;10.32;93.55;97606.69;5093825;28;20087;-68
2021/11/29 03:11:56;;;;;;;35.33;14.38;;;;;;;10.17;94.03;97596.38;5099681;28;20043;-68
2021/11/29 03:14:22;;;;;;;23.67;11.75;;;;;;;10.31;93.51;97614.84;5101256;28;20246;-68
2021/11/29 03:16:49;;;;;;;21.85;9.07;;;;;;;10.47;93.65;97607.25;5094862;28;20028;-68
2021/11/29 03:19:15;;;;;;;21.83;9.30;;;;;;;10.38;93.63;97602.38;5093310;28;20047;-69
2021/11/29 03:21:40;;;;;;;35.47;10.13;;;;;;;10.51;93.90;97597.84;5081003;28;20340;-69
2021/11/29 03:24:08;;;;;;;27.10;10.98;;;;;;;10.61;92.73;97584.16;5100936;28;20097;-68
2021/11/29 03:26:36;;;;;;;24.85;11.88;;;;;;;10.47;93.33;97590.56;5094981;28;20032;-68
2021/11/29 03:29:06;;;;;;;22.67;10.68;;;;;;;10.21;94.19;97580.91;5092725;28;20071;-69
2021/11/29 03:31:33;;;;;;;21.30;10.57;;;;;;;10.48;93.40;97590.34;5094799;28;20024;-69
2021/11/29 03:34:04;;;;;;;16.13;8.10;;;;;;;10.75;91.22;97584.88;5082446;28;20031;-68
2021/11/29 03:36:31;;;;;;;16.92;9.18;;;;;;;10.78;90.69;97587.88;5096308;28;20083;-68
2021/11/29 03:38:58;;;;;;;23.95;10.15;;;;;;;10.80;90.53;97611.50;5090415;28;20063;-68
2021/11/29 03:41:24;;;;;;;24.83;10.43;;;;;;;10.63;90.37;97610.41;5098358;28;20027;-68
2021/11/29 03:43:50;;;;;;;24.85;11.48;;;;;;;10.52;91.19;97618.00;5099850;28;20032;-68
2021/11/29 03:46:16;;;;;;;24.00;11.77;;;;;;;10.42;91.37;97630.88;5101520;28;20024;-68
2021/11/29 03:48:41;;;;;;;26.85;12.60;;;;;;;10.40;92.34;97608.28;5094925;28;20033;-69
2021/11/29 03:51:07;;;;;;;37.15;15.02;;;;;;;10.24;92.79;97581.31;5093639;28;20028;-68
2021/11/29 03:53:33;;;;;;;52.60;23.63;;;;;;;10.41;93.55;97584.28;5097713;28;20312;-68
2021/11/29 03:55:59;;;;;;;24.35;11.07;;;;;;;10.47;92.71;97594.03;5100601;28;20218;-68
2021/11/29 03:58:25;;;;;;;38.20;14.00;;;;;;;10.70;90.41;97584.69;5096539;28;20040;-68
2021/11/29 04:00:51;;;;;;;30.80;12.30;;;;;;;10.67;90.95;97578.00;5096484;28;20095;-69
2021/11/29 04:03:17;;;;;;;22.08;10.45;;;;;;;10.74;90.38;97575.31;5093015;28;20190;-68
2021/11/29 04:05:42;;;;;;;28.80;12.02;;;;;;;10.76;90.38;97570.59;5101069;28;20349;-68
2021/11/29 04:08:08;;;;;;;28.50;11.50;;;;;;;10.61;90.13;97562.97;5098924;28;20032;-68
2021/11/29 04:10:34;;;;;;;31.92;11.30;;;;;;;10.61;91.18;97562.97;5093689;28;20032;-68
2021/11/29 04:12:59;;;;;;;19.02;9.88;;;;;;;10.48;92.28;97560.44;5094523;28;20039;-69
2021/11/29 04:15:25;;;;;;;40.00;17.88;;;;;;;10.30;93.87;97534.69;5096998;28;20040;-69
2021/11/29 04:17:51;;;;;;;21.27;10.38;;;;;;;10.04;96.04;97532.97;5100364;28;20036;-68
2021/11/29 04:20:16;;;;;;;30.85;14.73;;;;;;;10.38;94.67;97542.34;5073278;28;20054;-68
2021/11/29 04:22:46;;;;;;;47.45;29.15;;;;;;;10.38;93.58;97544.19;5098023;28;20044;-68
2021/11/29 04:25:17;;;;;;;34.55;18.10;;;;;;;10.08;94.78;97523.59;5100313;28;20059;-68
2021/11/29 04:27:43;;;;;;;26.55;15.27;;;;;;;10.22;94.72;97509.31;5098013;28;20321;-69
2021/11/29 04:30:13;;;;;;;33.40;16.42;;;;;;;10.08;94.72;97517.50;5101395;28;20030;-69
2021/11/29 04:32:40;;;;;;;43.17;20.15;;;;;;;10.24;93.88;97520.47;5075799;28;20040;-68
2021/11/29 04:35:06;;;;;;;60.47;34.28;;;;;;;10.39;92.79;97519.34;5092284;28;20213;-68
2021/11/29 04:37:31;;;;;;;45.90;28.17;;;;;;;10.31;92.77;97532.84;5092889;28;20028;-68
2021/11/29 04:39:57;;;;;;;37.83;20.40;;;;;;;10.37;91.42;97546.03;5095519;28;20036;-69
2021/11/29 04:42:22;;;;;;;38.28;20.10;;;;;;;10.09;92.93;97558.78;5097982;28;20083;-68
2021/11/29 04:44:48;;;;;;;37.40;19.15;;;;;;;10.22;91.85;97540.22;5100209;28;20115;-68
2021/11/29 04:47:13;;;;;;;45.47;20.65;;;;;;;10.17;91.46;97551.41;5094349;28;20046;-68
2021/11/29 04:49:39;;;;;;;87.60;29.52;;;;;;;9.63;94.69;97553.72;5091859;28;20048;-68
2021/11/29 04:52:05;;;;;;;33.70;16.40;;;;;;;9.89;93.29;97545.69;5092795;28;20118;-68
2021/11/29 04:54:30;;;;;;;25.98;14.18;;;;;;;9.72;94.26;97553.28;5093872;28;20043;-68
2021/11/29 04:56:56;;;;;;;30.70;15.57;;;;;;;9.77;93.51;97547.34;5095451;28;20039;-68
2021/11/29 04:59:21;;;;;;;39.08;17.65;;;;;;;9.99;92.66;97518.78;5097643;28;20035;-69
2021/11/29 05:01:47;;;;;;;41.00;18.75;;;;;;;10.13;91.80;97513.19;5097484;28;21733;-68
2021/11/29 05:04:12;;;;;;;81.18;27.23;;;;;;;10.08;92.19;97538.66;5096327;28;20028;-68
2021/11/29 05:06:38;;;;;;;29.88;14.95;;;;;;;9.67;94.64;97523.22;5078078;28;20242;-68
2021/11/29 05:09:09;;;;;;;55.08;19.33;;;;;;;9.51;94.76;97522.66;5095393;28;20048;-68
2021/11/29 05:11:35;;;;;;;43.40;17.10;;;;;;;9.79;93.92;97538.19;5090844;28;20043;-68
2021/11/29 05:14:00;;;;;;;30.75;15.40;;;;;;;9.45;95.91;97522.69;5084203;28;20047;-68
2021/11/29 05:16:27;;;;;;;31.38;16.00;;;;;;;9.48;95.72;97523.09;5083392;28;20127;-68
2021/11/29 05:18:52;;;;;;;28.02;14.45;;;;;;;9.88;94.45;97536.13;5094679;28;20055;-68
2021/11/29 05:21:18;;;;;;;44.25;21.60;;;;;;;9.50;95.69;97539.53;5096012;28;20049;-67
2021/11/29 05:23:44;;;;;;;38.55;24.38;;;;;;;9.50;95.83;97539.53;5097003;28;20032;-68
2021/11/29 05:26:10;;;;;;;41.30;20.02;;;;;;;9.67;95.06;97541.72;5103604;28;20300;-68
2021/11/29 05:28:35;;;;;;;155.65;44.20;;;;;;;9.66;95.13;97535.63;5100754;28;20071;-68
2021/11/29 05:31:00;;;;;;;47.47;22.20;;;;;;;9.18;97.36;97530.66;5103691;28;20039;-67
2021/11/29 05:33:26;;;;;;;42.17;22.55;;;;;;;9.26;98.48;97569.25;5096558;28;20046;-68
2021/11/29 05:35:51;;;;;;;46.28;21.52;;;;;;;9.04;98.64;97583.69;5099518;28;20091;-67
2021/11/29 05:38:17;;;;;;;45.63;26.60;;;;;;;9.20;97.72;97565.59;5096131;28;20129;-68
2021/11/29 05:40:42;;;;;;;43.20;22.60;;;;;;;9.29;97.67;97582.03;5102201;28;20317;-68
2021/11/29 05:43:11;;;;;;;57.92;26.80;;;;;;;9.20;98.65;97585.91;5102716;28;20035;-68
2021/11/29 05:45:36;;;;;;;55.47;25.88;;;;;;;9.18;99.61;97611.72;5095429;28;20031;-73
2021/11/29 05:48:02;;;;;;;45.95;24.70;;;;;;;9.23;100.00;97625.09;5101271;28;20027;-73
2021/11/29 05:50:28;;;;;;;49.55;25.35;;;;;;;9.34;100.00;97586.69;5100266;28;20032;-73
2021/11/29 05:52:53;;;;;;;41.95;21.33;;;;;;;9.41;100.00;97613.94;5102701;28;20058;-74
2021/11/29 05:55:18;;;;;;;40.55;20.55;;;;;;;9.51;100.00;97594.00;5098698;28;20202;-73
2021/11/29 05:57:44;;;;;;;38.90;18.45;;;;;;;9.57;100.00;97622.22;5094720;28;20073;-73
2021/11/29 06:00:14;;;;;;;36.60;18.35;;;;;;;9.52;100.00;97623.88;5080932;28;20036;-73
2021/11/29 06:02:41;;;;;;;41.50;20.35;;;;;;;9.58;100.00;97644.19;5102298;28;20039;-72
2021/11/29 06:05:07;;;;;;;37.47;19.83;;;;;;;9.60;100.00;97663.28;5100613;28;20028;-73
2021/11/29 06:07:32;;;;;;;31.13;17.55;;;;;;;9.62;100.00;97648.03;5098938;28;20238;-73
2021/11/29 06:09:58;;;;;;;33.78;15.13;;;;;;;9.84;100.00;97662.59;5072688;28;20092;-72
2021/11/29 06:12:23;;;;;;;33.35;14.88;;;;;;;9.86;99.84;97651.81;5076022;28;20043;-74
2021/11/29 06:14:48;;;;;;;29.00;15.98;;;;;;;10.00;99.97;97642.81;5076710;28;20103;-73
2021/11/29 06:17:14;;;;;;;34.15;17.50;;;;;;;9.93;100.00;97660.53;5080872;28;20046;-73
2021/11/29 06:19:40;;;;;;;31.60;15.85;;;;;;;9.81;100.00;97667.50;5078547;28;20285;-72
2021/11/29 06:22:05;;;;;;;33.80;16.10;;;;;;;10.04;100.00;97673.13;5067545;28;20032;-73
2021/11/29 06:24:30;;;;;;;31.90;16.33;;;;;;;10.16;100.00;97646.84;5066001;28;20037;-73
2021/11/29 06:26:56;;;;;;;33.88;15.20;;;;;;;10.08;100.00;97660.28;5064894;28;20033;-73
2021/11/29 06:29:21;;;;;;;33.28;16.10;;;;;;;10.18;100.00;97658.81;5065595;28;20089;-72
2021/11/29 06:31:47;;;;;;;29.00;15.10;;;;;;;10.09;100.00;97668.00;5066510;28;20041;-73
2021/11/29 06:34:12;;;;;;;31.20;15.23;;;;;;;10.33;100.00;97660.41;5063462;28;20102;-73
2021/11/29 06:36:38;;;;;;;25.30;13.63;;;;;;;10.32;100.00;97649.03;5063948;28;20079;-72
2021/11/29 06:39:04;;;;;;;31.42;15.10;;;;;;;10.39;100.00;97652.44;5062490;28;20037;-72
2021/11/29 06:41:30;;;;;;;28.83;15.00;;;;;;;10.46;100.00;97660.38;5064306;28;20260;-73
2021/11/29 06:43:56;;;;;;;36.05;16.15;;;;;;;10.47;100.00;97659.34;5064505;28;20104;-73
2021/11/29 06:46:22;;;;;;;28.85;15.13;;;;;;;10.71;99.01;97663.09;5063700;28;20070;-72
2021/11/29 06:48:48;;;;;;;30.42;14.32;;;;;;;10.78;99.94;97662.00;5068048;28;20227;-73
2021/11/29 06:51:16;;;;;;;32.78;16.63;;;;;;;10.98;99.17;97676.94;5064206;28;20063;-73
2021/11/29 06:53:42;;;;;;;42.45;17.73;;;;;;;10.95;98.81;97698.56;5064420;28;20025;-73
2021/11/29 06:56:07;;;;;;;34.55;17.52;;;;;;;11.29;98.60;97692.00;5063341;28;20386;-73
2021/11/29 06:58:36;;;;;;;38.75;16.80;;;;;;;11.25;98.32;97680.19;5064810;28;20043;-73
2021/11/29 07:01:02;;;;;;;38.00;15.70;;;;;;;11.62;97.64;97723.53;5059349;28;20054;-73
2021/11/29 07:03:28;;;;;;;36.42;16.25;;;;;;;11.78;96.15;97723.81;5062163;28;20113;-74
2021/11/29 07:05:53;;;;;;;33.67;15.85;;;;;;;11.93;95.84;97678.38;5057591;28;20055;-73
2021/11/29 07:08:19;;;;;;;40.42;18.05;;;;;;;11.97;95.31;97699.97;5066435;28;20044;-73
2021/11/29 07:10:47;;;;;;;36.50;15.13;;;;;;;12.20;96.00;97708.06;5085119;28;20041;-72
2021/11/29 07:13:18;;;;;;;44.75;18.10;;;;;;;12.67;93.39;97706.50;5055990;28;20108;-73
2021/11/29 07:15:44;;;;;;;42.63;16.05;;;;;;;12.60;92.54;97663.28;5082309;28;20226;-73
2021/11/29 07:18:10;;;;;;;40.83;17.08;;;;;;;13.08;91.86;97684.44;5080906;28;20040;-72
2021/11/29 07:20:36;;;;;;;45.08;16.67;;;;;;;13.37;90.10;97719.19;5081015;28;20051;-73
2021/11/29 07:23:03;;;;;;;27.45;13.50;;;;;;;13.47;90.06;97723.94;5081086;28;20040;-73
2021/11/29 07:25:28;;;;;;;24.33;12.18;;;;;;;13.53;88.89;97696.47;5081710;28;20074;-73
2021/11/29 07:27:54;;;;;;;39.75;14.25;;;;;;;13.83;88.58;97662.56;5080785;28;20036;-73
2021/11/29 07:30:22;;;;;;;35.20;13.40;;;;;;;13.92;88.30;97697.59;5081284;28;20044;-74
2021/11/29 07:32:49;;;;;;;30.67;12.25;;;;;;;13.91;88.15;97696.78;5080873;28;20341;-73
2021/11/29 07:35:15;;;;;;;28.95;11.38;;;;;;;14.12;88.07;97681.25;5080378;28;20040;-74
2021/11/29 07:37:42;;;;;;;28.48;10.40;;;;;;;14.28;87.83;97637.94;5080795;28;20241;-74
2021/11/29 07:40:08;;;;;;;47.35;14.23;;;;;;;14.31;86.56;97667.56;5063214;28;20111;-74
2021/11/29 07:42:34;;;;;;;47.95;14.05;;;;;;;14.41;86.88;97666.94;5080867;28;20036;-73
2021/11/29 07:44:59;;;;;;;30.90;10.07;;;;;;;14.38;86.82;97654.09;5081174;28;20071;-73
2021/11/29 07:47:25;;;;;;;44.08;14.27;;;;;;;14.66;85.89;97677.31;5080922;28;20031;-74
2021/11/29 07:49:52;;;;;;;34.72;12.75;;;;;;;14.54;86.37;97690.66;5080902;28;20287;-73
2021/11/29 07:52:17;;;;;;;32.47;13.23;;;;;;;14.47;87.32;97686.53;5080886;28;20334;-73
2021/11/29 07:54:43;;;;;;;33.70;13.05;;;;;;;14.59;87.18;97695.31;5081110;28;20039;-73
2021/11/29 07:57:11;;;;;;;38.85;13.77;;;;;;;14.84;86.35;97713.63;5080897;28;20028;-73
2021/11/29 07:59:37;;;;;;;36.92;13.55;;;;;;;14.86;86.66;97715.00;5062864;28;20032;-74
2021/11/29 08:02:03;;;;;;;40.22;15.35;;;;;;;15.01;86.28;97698.47;5080920;28;20025;-73
2021/11/29 08:04:28;;;;;;;30.02;11.48;;;;;;;15.21;85.07;97696.16;5080785;28;20076;-73
2021/11/29 08:06:53;;;;;;;24.17;8.60;;;;;;;15.26;84.52;97709.56;5080675;28;20059;-73
2021/11/29 08:09:19;;;;;;;26.30;10.35;;;;;;;15.33;84.71;97720.88;5080621;28;20048;-73
2021/11/29 08:11:45;;;;;;;34.90;13.85;;;;;;;15.08;86.05;97704.47;5081165;28;20020;-73
2021/11/29 08:14:10;;;;;;;23.65;10.60;;;;;;;15.04;85.91;97718.50;5080569;28;20244;-74
2021/11/29 08:16:35;;;;;;;16.38;6.78;;;;;;;14.72;87.34;97724.31;5080940;28;20063;-73
2021/11/29 08:19:01;;;;;;;14.65;6.28;;;;;;;14.74;87.52;97745.41;5062678;28;20377;-73
2021/11/29 08:21:26;;;;;;;24.13;10.02;;;;;;;14.65;87.83;97737.78;5080788;28;20028;-73
2021/11/29 08:23:52;;;;;;;25.77;9.82;;;;;;;14.67;87.91;97737.53;5079577;28;20038;-74
2021/11/29 08:26:17;;;;;;;25.52;9.32;;;;;;;14.52;88.56;97732.69;5081410;28;20272;-74
2021/11/29 08:28:43;;;;;;;24.15;10.43;;;;;;;14.50;88.91;97723.31;5080434;28;20036;-73
2021/11/29 08:31:09;;;;;;;25.33;9.65;;;;;;;14.48;89.43;97717.44;5085438;28;20036;-73
2021/11/29 08:33:34;;;;;;;17.45;8.07;;;;;;;14.28;90.34;97721.28;5083832;28;20095;-74
2021/11/29 08:36:00;;;;;;;18.08;7.60;;;;;;;14.16;91.10;97722.34;5085679;28;20099;-73
2021/11/29 08:38:25;;;;;;;19.35;7.50;;;;;;;14.00;91.81;97735.31;5086084;28;20028;-74
2021/11/29 08:40:50;;;;;;;13.10;6.55;;;;;;;14.10;91.58;97739.25;5086017;28;20217;-74
2021/11/29 08:43:18;;;;;;;19.92;7.03;;;;;;;14.04;91.99;97740.97;5085638;28;20046;-74
2021/11/29 08:45:46;;;;;;;20.63;7.57;;;;;;;14.02;92.19;97740.41;5086982;28;20306;-74
2021/11/29 08:48:12;;;;;;;22.17;8.60;;;;;;;13.97;92.96;97748.28;5083646;28;20063;-74
2021/11/29 08:50:41;;;;;;;18.65;8.50;;;;;;;13.91;93.35;97757.19;5062812;28;20329;-73
2021/11/29 08:53:10;;;;;;;27.42;16.00;;;;;;;14.07;93.62;97754.63;5084497;28;20032;-73
2021/11/29 08:55:37;;;;;;;31.55;14.00;;;;;;;14.51;92.29;97738.25;5084980;28;20044;-72
2021/11/29 08:58:05;;;;;;;23.55;11.23;;;;;;;14.60;91.77;97727.03;5067070;28;20222;-74
2021/11/29 09:00:31;;;;;;;22.63;9.98;;;;;;;14.68;90.61;97752.47;5087004;28;20309;-73
2021/11/29 09:02:59;;;;;;;26.17;10.27;;;;;;;14.69;90.60;97738.13;5086529;28;20126;-74
2021/11/29 09:05:25;;;;;;;25.83;10.43;;;;;;;14.72;90.25;97739.50;5083243;28;20102;-74
2021/11/29 09:07:52;;;;;;;22.75;9.95;;;;;;;14.67;89.75;97721.56;5085912;28;20043;-73
2021/11/29 09:10:17;;;;;;;22.40;9.90;;;;;;;14.64;89.98;97760.13;5045403;28;20295;-73
2021/11/29 09:12:43;;;;;;;28.48;8.55;;;;;;;14.55;89.99;97760.72;5043947;28;20029;-74
2021/11/29 09:15:12;;;;;;;17.42;7.93;;;;;;;14.56;90.49;97723.19;5055124;28;20120;-73
2021/11/29 09:17:38;;;;;;;26.17;8.57;;;;;;;14.77;90.82;97734.28;5044989;28;20109;-74
2021/11/29 09:20:11;;;;;;;15.80;8.05;;;;;;;14.78;90.25;97726.03;5045599;28;20432;-73
2021/11/29 09:22:37;;;;;;;14.57;6.95;;;;;;;15.05;90.11;97792.09;5045968;28;20065;-74
2021/11/29 09:25:04;;;;;;;16.02;7.25;;;;;;;14.96;90.45;97819.13;5045076;28;20025;-74
2021/11/29 09:27:30;;;;;;;18.90;6.38;;;;;;;14.78;91.36;97834.47;5047612;28;20290;-74
2021/11/29 09:29:55;;;;;;;29.48;9.88;;;;;;;14.85;93.06;97841.28;5043819;28;20044;-73
2021/11/29 09:32:21;;;;;;;26.60;8.75;;;;;;;14.94;94.29;97826.53;5063107;28;20024;-73
2021/11/29 09:34:48;;;;;;;22.25;9.07;;;;;;;14.94;95.04;97841.72;5042630;28;20071;-74
2021/11/29 09:37:14;;;;;;;15.52;6.47;;;;;;;15.00;91.60;97840.78;5042185;28;20091;-74
2021/11/29 09:39:40;;;;;;;15.82;5.50;;;;;;;14.83;87.56;97837.22;5047172;28;20090;-73
2021/11/29 09:42:06;;;;;;;10.57;3.55;;;;;;;14.85;88.82;97837.81;5043071;28;20030;-74
2021/11/29 09:44:32;;;;;;;10.98;4.15;;;;;;;15.01;87.94;97803.22;5045349;28;20032;-74
2021/11/29 09:46:57;;;;;;;13.18;3.70;;;;;;;15.07;86.21;97800.66;5046792;28;20099;-74
2021/11/29 09:49:28;;;;;;;4.90;1.48;;;;;;;14.95;83.83;97804.16;5042982;28;20096;-73
2021/11/29 09:52:09;;;;;;;6.40;2.00;;;;;;;14.91;84.86;97805.69;5045592;28;20350;-74
2021/11/29 09:54:34;;;;;;;6.90;2.53;;;;;;;14.82;82.76;97791.13;5041698;28;20029;-74
2021/11/29 09:57:00;;;;;;;10.48;3.25;;;;;;;14.82;80.42;97788.47;5045532;28;20075;-74
2021/11/29 10:52:27;;;;;;;5.75;1.15;;;;;;;15.86;56.84;97823.72;5160645;27;20645;-63
2021/11/29 10:54:54;;;;;;;0.85;0.77;;;;;;;15.87;56.43;97820.00;5160606;27;20075;-66
2021/11/29 10:57:22;;;;;;;3.13;0.95;;;;;;;15.73;55.64;97823.22;5160372;27;20030;-66
2021/11/29 10:59:50;;;;;;;3.40;1.60;;;;;;;15.65;55.34;97824.44;5160375;27;20023;-63
2021/11/29 11:02:17;;;;;;;0.98;0.88;;;;;;;15.72;55.61;97830.41;5160326;27;20082;-63
2021/11/29 11:05:01;;;;;;;6.22;1.50;;;;;;;15.85;55.43;97835.44;5160549;27;20322;-63
2021/11/29 11:07:27;;;;;;;;;;;;;;;15.78;57.36;97823.31;5160746;27;20030;-66
2021/11/29 11:09:55;;;;;;;2.95;1.50;;;;;;;15.67;59.10;97833.00;5160028;27;20149;-63
2021/11/29 11:12:24;;;;;;;8.30;1.73;;;;;;;15.76;60.68;97823.53;5160117;27;20058;-66
2021/11/29 11:14:54;;;;;;;4.90;2.38;;;;;;;15.64;62.94;97820.94;5141646;27;20027;-66
2021/11/29 11:17:25;;;;;;;3.67;2.35;;;;;;;15.52;66.92;97835.34;5160171;27;20044;-66
2021/11/29 11:19:54;;;;;;;3.90;2.53;;;;;;;15.43;70.25;97829.59;5159832;27;20395;-66
2021/11/29 11:22:26;;;;;;;5.35;2.35;;;;;;;15.33;70.86;97864.06;5159926;27;20034;-66
2021/11/29 11:25:00;;;;;;;8.15;3.13;;;;;;;15.19;70.92;97852.06;5159669;27;20057;-68
2021/11/29 11:27:30;;;;;;;7.70;2.42;;;;;;;15.12;69.95;97835.41;5154945;27;20046;-66
2021/11/29 11:30:16;;;;;;;7.68;1.35;;;;;;;14.89;66.57;97836.28;5156104;27;20156;-65
2021/11/29 11:32:47;;;;;;;2.97;1.60;;;;;;;14.67;66.25;97854.75;5158694;27;20228;-63
2021/11/29 11:35:15;;;;;;;2.90;1.92;;;;;;;14.73;66.75;97877.78;5159700;27;20026;-66
2021/11/29 11:37:50;;;;;;;6.20;4.78;;;;;;;14.44;65.58;97870.72;5159059;27;20030;-66
2021/11/29 11:40:16;;;;;;;5.55;3.20;;;;;;;14.37;65.72;97889.44;5159422;27;20146;-66
2021/11/29 11:42:43;;;;;;;4.18;2.35;;;;;;;14.25;65.96;97884.13;5159965;27;20041;-63
2021/11/29 11:45:11;;;;;;;6.85;3.35;;;;;;;14.13;65.57;97893.94;5159135;27;20312;-66
2021/11/29 11:47:37;;;;;;;5.63;3.70;;;;;;;14.10;67.18;97910.38;5159368;27;20232;-63
2021/11/29 11:50:07;;;;;;;4.78;3.70;;;;;;;14.25;65.87;97928.56;5158850;27;20545;-63
2021/11/29 11:52:33;;;;;;;5.15;3.05;;;;;;;14.33;66.02;97923.72;5148367;27;20030;-66
2021/11/29 11:55:01;;;;;;;5.82;2.17;;;;;;;14.40;66.77;97931.59;5145354;27;20307;-63
2021/11/29 11:57:27;;;;;;;2.10;1.33;;;;;;;14.25;66.16;97926.72;5145008;27;20055;-66
2021/11/29 12:00:22;;;;;;;3.95;2.30;;;;;;;14.23;67.86;97902.16;5126141;27;20331;-66
2021/11/29 12:02:54;;;;;;;;;;;;;;;14.36;70.53;97903.81;5145841;27;20035;-63
2021/11/29 12:05:24;;;;;;;2.45;1.52;;;;;;;14.35;69.63;97918.16;5145364;27;20119;-63
2021/11/29 12:07:50;;;;;;;6.25;1.83;;;;;;;14.48;69.60;97911.81;5144817;27;20027;-66
2021/11/29 12:10:42;;;;;;;4.38;2.10;;;;;;;14.33;68.27;97914.91;5144821;27;20041;-63
2021/11/29 12:13:15;;;;;;;3.95;2.75;;;;;;;14.35;68.88;97923.47;5126637;27;20247;-63